0TX1 – Local Weather Observations

Pecan Plantation

This weather station is operated by a private user located just north of the field. Data is gathered via OpenWeatherMap.org.

Last updated:
2019-07-19 11:17:26(6:17 am)

Temperature: 77.0 °F

Sunrise / Sunset: 6:35 am / 8:38 pm

Civil Dawn / Dusk: 6:08 am / 9:05 pm

Nearby METARs

KGDJ 191115Z AUTO 17009KT 10SM CLR 26/21 A2995 RMK AO2 T02620205

KCPT 191115Z AUTO 16006KT 10SM CLR 24/23 A2997 RMK AO2

KFWS 191115Z AUTO 17007KT 10SM CLR 25/22 A2996 RMK AO2 T02490216

KSEP 191115Z AUTO 18005KT 10SM CLR 24/20 A2999 RMK AO2 T02350195